createdAt,value
2022-12-18T00:00:14.519Z,420
2022-12-18T00:01:13.522Z,421
2022-12-18T00:02:13.772Z,426
2022-12-18T00:03:27.850Z,440
2022-12-18T00:04:13.702Z,425
2022-12-18T00:05:13.777Z,433
2022-12-18T00:06:13.754Z,442
2022-12-18T00:07:13.878Z,441
2022-12-18T00:08:13.674Z,431
2022-12-18T00:09:13.807Z,428
2022-12-18T00:10:15.504Z,431
2022-12-18T00:11:13.717Z,454
2022-12-18T00:13:13.642Z,422
2022-12-18T00:14:13.322Z,421
2022-12-18T00:15:13.836Z,431
2022-12-18T00:16:13.467Z,440
2022-12-18T00:17:14.573Z,438
2022-12-18T00:18:16.101Z,431
2022-12-18T00:19:13.567Z,421
2022-12-18T00:20:14.437Z,424
2022-12-18T00:21:14.263Z,427
2022-12-18T00:22:13.845Z,428
2022-12-18T00:23:13.629Z,416
2022-12-18T00:24:13.506Z,423
2022-12-18T00:25:13.420Z,425
2022-12-18T00:26:13.877Z,428
2022-12-18T00:27:13.677Z,432
2022-12-18T00:28:14.203Z,441
2022-12-18T00:29:13.766Z,445
2022-12-18T00:30:13.673Z,432
2022-12-18T00:31:14.200Z,435
2022-12-18T00:32:13.871Z,432
2022-12-18T00:34:13.809Z,424
2022-12-18T00:35:13.536Z,417
2022-12-18T00:37:19.737Z,420
2022-12-18T00:38:13.860Z,424
2022-12-18T00:39:13.789Z,421
2022-12-18T00:40:13.953Z,426
2022-12-18T00:41:13.639Z,433
2022-12-18T00:43:13.351Z,435
2022-12-18T00:44:14.147Z,442
2022-12-18T00:45:14.326Z,434
2022-12-18T00:46:14.306Z,423
2022-12-18T00:47:13.767Z,427
2022-12-18T00:48:13.710Z,428
2022-12-18T00:49:13.485Z,425
2022-12-18T00:50:13.342Z,424
2022-12-18T00:51:13.777Z,426
2022-12-18T00:53:14.186Z,430
2022-12-18T00:54:13.812Z,427
2022-12-18T00:55:13.735Z,434
2022-12-18T00:56:13.694Z,429
2022-12-18T00:57:13.894Z,431
2022-12-18T00:58:13.697Z,427
2022-12-18T00:59:13.315Z,420
2022-12-18T01:00:14.840Z,424
2022-12-18T01:01:15.789Z,423
2022-12-18T01:02:14.528Z,419
2022-12-18T01:03:13.577Z,425
2022-12-18T01:04:14.298Z,430
2022-12-18T01:05:14.230Z,416
2022-12-18T01:06:13.852Z,424
2022-12-18T01:07:13.300Z,430
2022-12-18T01:08:13.748Z,424
2022-12-18T01:09:14.166Z,419
2022-12-18T01:10:13.561Z,427
2022-12-18T01:11:14.112Z,432
2022-12-18T01:12:13.522Z,429
2022-12-18T01:13:13.694Z,438
2022-12-18T01:14:13.104Z,428
2022-12-18T01:15:13.695Z,413
2022-12-18T01:16:13.969Z,410
2022-12-18T01:17:13.604Z,418
2022-12-18T01:18:14.026Z,417
2022-12-18T01:21:13.799Z,424
2022-12-18T01:22:13.248Z,404
2022-12-18T01:23:13.662Z,414
2022-12-18T01:24:14.050Z,405
2022-12-18T01:25:13.372Z,402
2022-12-18T01:26:13.647Z,412
2022-12-18T01:27:13.688Z,419
2022-12-18T01:28:13.754Z,417
2022-12-18T01:29:13.892Z,420
2022-12-18T01:30:14.091Z,419
2022-12-18T01:31:13.533Z,421
2022-12-18T01:32:13.664Z,423
2022-12-18T01:33:13.386Z,416
2022-12-18T01:34:13.157Z,418
2022-12-18T01:35:13.639Z,417
2022-12-18T01:36:13.904Z,410
2022-12-18T01:37:13.234Z,408
2022-12-18T01:38:13.000Z,405
2022-12-18T01:39:13.977Z,403
2022-12-18T01:40:13.899Z,406
2022-12-18T01:41:12.932Z,419
2022-12-18T01:42:14.073Z,426
2022-12-18T01:43:13.252Z,424
2022-12-18T01:44:13.748Z,418
2022-12-18T01:45:13.414Z,441
2022-12-18T01:46:13.311Z,433
2022-12-18T01:47:13.801Z,423
2022-12-18T01:48:13.856Z,414
2022-12-18T01:49:13.766Z,415
2022-12-18T01:50:13.162Z,414
2022-12-18T01:51:13.519Z,425
2022-12-18T01:52:13.697Z,428
2022-12-18T01:53:13.977Z,439
2022-12-18T01:54:14.076Z,427
2022-12-18T01:55:13.402Z,422
2022-12-18T01:56:13.238Z,420
2022-12-18T01:57:13.405Z,422
2022-12-18T01:58:13.628Z,430
2022-12-18T01:59:13.945Z,427
2022-12-18T02:01:14.259Z,419
2022-12-18T02:02:14.162Z,427
2022-12-18T02:03:13.774Z,426
2022-12-18T02:04:13.270Z,427
2022-12-18T02:05:13.741Z,417
2022-12-18T02:06:13.852Z,410
2022-12-18T02:07:13.108Z,418
2022-12-18T02:08:13.154Z,424
2022-12-18T02:09:13.465Z,442
2022-12-18T02:10:13.828Z,421
2022-12-18T02:11:13.934Z,418
2022-12-18T02:12:18.057Z,416
2022-12-18T02:13:13.011Z,423
2022-12-18T02:14:13.041Z,421
2022-12-18T02:15:13.141Z,425
2022-12-18T02:16:13.230Z,421
2022-12-18T02:17:13.596Z,424
2022-12-18T02:18:13.669Z,425
2022-12-18T02:20:13.252Z,428
2022-12-18T02:21:13.314Z,431
2022-12-18T02:23:13.985Z,433
2022-12-18T02:24:13.329Z,426
2022-12-18T02:26:13.353Z,424
2022-12-18T02:27:13.623Z,419
2022-12-18T02:28:14.133Z,417
2022-12-18T02:30:13.815Z,414
2022-12-18T02:31:13.418Z,409
2022-12-18T02:32:13.568Z,445
2022-12-18T02:33:13.754Z,431
2022-12-18T02:34:13.824Z,424
2022-12-18T02:35:14.071Z,426
2022-12-18T02:36:13.118Z,429
2022-12-18T02:37:13.320Z,418
2022-12-18T02:38:13.386Z,427
2022-12-18T02:39:13.624Z,426
2022-12-18T02:40:13.687Z,423
2022-12-18T02:41:13.311Z,416
2022-12-18T02:42:13.684Z,430
2022-12-18T02:43:14.137Z,425
2022-12-18T02:44:13.875Z,423
2022-12-18T02:45:13.487Z,427
2022-12-18T02:46:14.011Z,419
2022-12-18T02:47:13.534Z,435
2022-12-18T02:48:13.699Z,433
2022-12-18T02:49:13.724Z,423
2022-12-18T02:50:13.956Z,422
2022-12-18T02:51:13.896Z,421
2022-12-18T02:52:13.375Z,429
2022-12-18T02:53:13.623Z,426
2022-12-18T02:54:13.964Z,430
2022-12-18T02:55:13.243Z,436
2022-12-18T02:57:13.533Z,435
2022-12-18T02:58:13.744Z,437
2022-12-18T02:59:13.105Z,429
2022-12-18T03:00:14.123Z,433
2022-12-18T03:01:13.903Z,442
2022-12-18T03:02:13.617Z,439
2022-12-18T03:03:13.291Z,434
2022-12-18T03:04:13.816Z,437
2022-12-18T03:05:14.119Z,445
2022-12-18T03:06:13.207Z,434
2022-12-18T03:07:13.295Z,422
2022-12-18T03:08:13.323Z,435
2022-12-18T03:09:13.884Z,422
2022-12-18T03:10:13.850Z,430
2022-12-18T03:11:14.080Z,431
2022-12-18T03:12:13.290Z,420
2022-12-18T03:13:13.419Z,415
2022-12-18T03:14:13.585Z,427
2022-12-18T03:15:17.587Z,437
2022-12-18T03:16:13.121Z,434
2022-12-18T03:17:13.535Z,432
2022-12-18T03:18:13.510Z,428
2022-12-18T03:19:13.641Z,432
2022-12-18T03:20:13.951Z,433
2022-12-18T03:21:13.079Z,432
2022-12-18T03:22:13.396Z,431
2022-12-18T03:23:13.575Z,426
2022-12-18T03:24:13.495Z,422
2022-12-18T03:25:14.027Z,425
2022-12-18T03:26:13.367Z,427
2022-12-18T03:27:13.718Z,434
2022-12-18T03:28:13.646Z,433
2022-12-18T03:29:14.076Z,441
2022-12-18T03:30:13.433Z,437
2022-12-18T03:31:13.594Z,449
2022-12-18T03:32:13.552Z,442
2022-12-18T03:33:13.864Z,429
2022-12-18T03:34:14.068Z,432
2022-12-18T03:35:13.504Z,431
2022-12-18T03:36:13.348Z,422
2022-12-18T03:37:13.406Z,429
2022-12-18T03:38:13.656Z,444
2022-12-18T03:39:13.741Z,448
2022-12-18T03:40:13.866Z,444
2022-12-18T03:41:13.245Z,440
2022-12-18T03:42:13.333Z,438
2022-12-18T03:43:13.623Z,435
2022-12-18T03:44:13.755Z,440
2022-12-18T03:45:14.422Z,431
2022-12-18T03:46:13.991Z,423
2022-12-18T03:47:13.597Z,436
2022-12-18T03:49:13.917Z,433
2022-12-18T03:50:14.023Z,439
2022-12-18T03:51:13.023Z,436
2022-12-18T03:52:13.231Z,439
2022-12-18T03:53:13.329Z,444
2022-12-18T03:54:13.398Z,439
2022-12-18T03:55:13.317Z,442
2022-12-18T03:56:13.316Z,434
2022-12-18T03:57:13.352Z,441
2022-12-18T03:59:13.494Z,440
2022-12-18T04:00:14.219Z,436
2022-12-18T04:01:13.612Z,437
2022-12-18T04:02:13.865Z,430
2022-12-18T04:03:13.380Z,438
2022-12-18T04:04:13.824Z,441
2022-12-18T04:05:14.191Z,442
2022-12-18T04:06:13.224Z,439
2022-12-18T04:07:13.555Z,431
2022-12-18T04:08:13.496Z,427
2022-12-18T04:09:13.560Z,433
2022-12-18T04:10:13.899Z,438
2022-12-18T04:11:13.720Z,439
2022-12-18T04:12:13.771Z,440
2022-12-18T04:13:13.287Z,446
2022-12-18T04:14:17.575Z,450
2022-12-18T04:15:14.141Z,456
2022-12-18T04:16:13.365Z,449
2022-12-18T04:17:13.441Z,447
2022-12-18T04:18:13.465Z,440
2022-12-18T04:19:13.564Z,435
2022-12-18T04:20:13.813Z,432
2022-12-18T04:21:14.365Z,437
2022-12-18T04:22:13.483Z,446
2022-12-18T04:23:13.483Z,442
2022-12-18T04:24:13.847Z,435
2022-12-18T04:25:14.181Z,426
2022-12-18T04:26:13.271Z,433
2022-12-18T04:27:13.584Z,426
2022-12-18T04:28:13.668Z,431
2022-12-18T04:29:13.020Z,441
2022-12-18T04:30:13.554Z,432
2022-12-18T04:31:14.047Z,439
2022-12-18T04:32:13.286Z,432
2022-12-18T04:33:13.696Z,439
2022-12-18T04:34:13.663Z,434
2022-12-18T04:35:14.079Z,435
2022-12-18T04:36:13.153Z,438
2022-12-18T04:37:13.348Z,436
2022-12-18T04:38:13.566Z,433
2022-12-18T04:39:13.967Z,440
2022-12-18T04:40:13.058Z,439
2022-12-18T04:41:13.247Z,437
2022-12-18T04:42:13.102Z,441
2022-12-18T04:43:21.587Z,446
2022-12-18T04:44:13.760Z,453
2022-12-18T04:45:22.265Z,458
2022-12-18T04:46:13.265Z,448
2022-12-18T04:47:22.001Z,443
2022-12-18T04:48:13.743Z,447
2022-12-18T04:49:13.801Z,450
2022-12-18T04:50:12.963Z,444
2022-12-18T04:51:13.093Z,434
2022-12-18T04:52:13.601Z,450
2022-12-18T04:53:13.754Z,435
2022-12-18T04:54:13.469Z,432
2022-12-18T04:55:13.747Z,435
2022-12-18T04:56:13.026Z,428
2022-12-18T04:57:13.191Z,430
2022-12-18T04:58:12.661Z,438
2022-12-18T04:59:13.792Z,443
2022-12-18T05:00:14.511Z,440
2022-12-18T05:01:14.128Z,429
2022-12-18T05:02:13.844Z,437
2022-12-18T05:03:13.750Z,422
2022-12-18T05:04:13.916Z,424
2022-12-18T05:06:13.634Z,428
2022-12-18T05:07:12.992Z,430
2022-12-18T05:08:13.637Z,426
2022-12-18T05:09:14.093Z,428
2022-12-18T05:10:13.311Z,435
2022-12-18T05:11:13.436Z,430
2022-12-18T05:12:13.579Z,434
2022-12-18T05:13:13.738Z,438
2022-12-18T05:14:13.758Z,424
2022-12-18T05:15:14.120Z,440
2022-12-18T05:16:13.581Z,417
2022-12-18T05:17:14.146Z,412
2022-12-18T05:18:13.251Z,420
2022-12-18T05:19:13.462Z,414
2022-12-18T05:20:14.033Z,428
2022-12-18T05:21:13.583Z,421
2022-12-18T05:22:13.942Z,416
2022-12-18T05:23:13.372Z,418
2022-12-18T05:24:13.753Z,428
2022-12-18T05:25:14.185Z,427
2022-12-18T05:26:13.415Z,425
2022-12-18T05:27:13.406Z,424
2022-12-18T05:28:13.550Z,431
2022-12-18T05:29:13.624Z,426
2022-12-18T05:30:13.875Z,438
2022-12-18T05:31:13.327Z,432
2022-12-18T05:32:13.635Z,428
2022-12-18T05:33:13.999Z,434
2022-12-18T05:34:13.318Z,431
2022-12-18T05:35:14.094Z,443
2022-12-18T05:36:13.204Z,437
2022-12-18T05:37:13.824Z,438
2022-12-18T05:38:13.110Z,421
2022-12-18T05:39:13.205Z,424
2022-12-18T05:40:13.497Z,400
2022-12-18T05:41:13.931Z,413
2022-12-18T05:42:13.158Z,408
2022-12-18T05:43:17.944Z,412
2022-12-18T05:44:14.496Z,411
2022-12-18T05:45:14.137Z,422
2022-12-18T05:46:11.934Z,412
2022-12-18T05:47:13.908Z,414
2022-12-18T05:48:13.016Z,409
2022-12-18T05:49:13.224Z,413
2022-12-18T05:50:13.598Z,428
2022-12-18T05:51:14.082Z,426
2022-12-18T05:52:13.625Z,428
2022-12-18T05:53:14.098Z,431
2022-12-18T05:54:13.331Z,430
2022-12-18T05:55:14.112Z,435
2022-12-18T05:56:13.456Z,437
2022-12-18T05:57:13.960Z,435
2022-12-18T05:58:13.853Z,429
2022-12-18T05:59:13.131Z,438
2022-12-18T06:01:14.336Z,434
2022-12-18T06:02:14.341Z,437
2022-12-18T06:03:13.847Z,421
2022-12-18T06:04:13.768Z,449
2022-12-18T06:05:13.338Z,455
2022-12-18T06:06:13.752Z,456
2022-12-18T06:07:13.947Z,448
2022-12-18T06:08:13.041Z,445
2022-12-18T06:09:13.659Z,443
2022-12-18T06:10:14.252Z,438
2022-12-18T06:11:13.714Z,444
2022-12-18T06:13:12.937Z,453
2022-12-18T06:14:14.137Z,459
2022-12-18T06:16:13.801Z,456
2022-12-18T06:17:13.483Z,463
2022-12-18T06:18:13.195Z,451
2022-12-18T06:19:13.528Z,445
2022-12-18T06:21:13.963Z,459
2022-12-18T06:22:13.210Z,447
2022-12-18T06:23:13.302Z,446
2022-12-18T06:24:13.940Z,450
2022-12-18T06:25:13.765Z,453
2022-12-18T06:26:14.042Z,445
2022-12-18T06:27:14.023Z,430
2022-12-18T06:28:13.417Z,442
2022-12-18T06:29:13.575Z,454
2022-12-18T06:30:14.466Z,450
2022-12-18T06:32:13.803Z,451
2022-12-18T06:33:14.132Z,437
2022-12-18T06:34:13.427Z,442
2022-12-18T06:35:14.045Z,450
2022-12-18T06:36:13.756Z,459
2022-12-18T06:37:13.948Z,453
2022-12-18T06:38:13.015Z,446
2022-12-18T06:39:14.135Z,439
2022-12-18T06:41:13.112Z,452
2022-12-18T06:42:13.213Z,455
2022-12-18T06:43:13.517Z,454
2022-12-18T06:44:13.882Z,451
2022-12-18T06:45:13.299Z,453
2022-12-18T06:46:13.680Z,455
2022-12-18T06:47:13.991Z,459
2022-12-18T06:48:13.392Z,456
2022-12-18T06:49:13.646Z,459
2022-12-18T06:50:13.627Z,456
2022-12-18T06:51:13.955Z,453
2022-12-18T06:52:13.209Z,456
2022-12-18T06:53:13.493Z,446
2022-12-18T06:54:13.891Z,443
2022-12-18T06:55:13.749Z,452
2022-12-18T06:56:13.810Z,446
2022-12-18T06:57:13.784Z,445
2022-12-18T06:58:14.127Z,452
2022-12-18T06:59:13.401Z,449
2022-12-18T07:00:14.660Z,455
2022-12-18T07:01:13.958Z,446
2022-12-18T07:02:13.558Z,441
2022-12-18T07:03:13.888Z,460
2022-12-18T07:04:13.682Z,466
2022-12-18T07:05:13.470Z,459
2022-12-18T07:06:13.812Z,457
2022-12-18T07:07:13.155Z,453
2022-12-18T07:08:13.098Z,456
2022-12-18T07:09:13.352Z,460
2022-12-18T07:10:14.073Z,458
2022-12-18T07:11:13.195Z,436
2022-12-18T07:12:13.543Z,461
2022-12-18T07:13:13.935Z,460
2022-12-18T07:14:13.407Z,432
2022-12-18T07:15:13.971Z,436
2022-12-18T07:16:20.916Z,448
2022-12-18T07:17:14.069Z,451
2022-12-18T07:19:13.970Z,448
2022-12-18T07:20:13.445Z,457
2022-12-18T07:22:13.427Z,450
2022-12-18T07:23:13.818Z,441
2022-12-18T07:25:14.089Z,448
2022-12-18T07:26:27.345Z,458
2022-12-18T07:27:13.452Z,452
2022-12-18T07:28:17.331Z,445
2022-12-18T07:29:13.405Z,457
2022-12-18T07:30:14.063Z,465
2022-12-18T07:31:13.623Z,468
2022-12-18T07:32:13.618Z,459
2022-12-18T07:33:13.505Z,454
2022-12-18T07:34:14.094Z,445
2022-12-18T07:35:13.684Z,478
2022-12-18T07:36:13.698Z,480
2022-12-18T07:37:14.226Z,458
2022-12-18T07:38:13.928Z,467
2022-12-18T07:39:13.562Z,472
2022-12-18T07:40:14.165Z,468
2022-12-18T07:41:13.614Z,469
2022-12-18T07:42:13.877Z,465
2022-12-18T07:43:13.380Z,470
2022-12-18T07:44:14.114Z,482
2022-12-18T07:45:13.591Z,483
2022-12-18T07:46:14.003Z,472
2022-12-18T07:47:13.664Z,471
2022-12-18T07:48:13.993Z,476
2022-12-18T07:49:13.431Z,468
2022-12-18T07:50:14.631Z,473
2022-12-18T07:51:14.114Z,467
2022-12-18T07:52:13.611Z,475
2022-12-18T07:53:13.756Z,468
2022-12-18T07:55:13.659Z,466
2022-12-18T07:56:28.224Z,471
2022-12-18T07:58:13.601Z,468
2022-12-18T07:59:13.805Z,476
2022-12-18T08:00:15.129Z,465
2022-12-18T08:01:14.206Z,466
2022-12-18T08:02:14.245Z,473
2022-12-18T08:03:14.344Z,480
2022-12-18T08:04:14.422Z,476
2022-12-18T08:05:14.487Z,472
2022-12-18T08:06:13.757Z,478
2022-12-18T08:07:13.744Z,475
2022-12-18T08:08:14.153Z,476
2022-12-18T08:09:13.833Z,477
2022-12-18T08:10:13.180Z,476
2022-12-18T08:11:13.603Z,480
2022-12-18T08:12:13.925Z,478
2022-12-18T08:13:13.630Z,476
2022-12-18T08:14:14.264Z,474
2022-12-18T08:15:13.865Z,478
2022-12-18T08:16:13.342Z,483
2022-12-18T08:17:14.111Z,488
2022-12-18T08:18:14.534Z,483
2022-12-18T08:19:14.212Z,469
2022-12-18T08:20:13.966Z,467
2022-12-18T08:21:13.816Z,444
2022-12-18T08:22:13.510Z,477
2022-12-18T08:24:13.482Z,463
2022-12-18T08:25:14.355Z,464
2022-12-18T08:26:13.591Z,456
2022-12-18T08:27:28.887Z,453
2022-12-18T08:28:14.006Z,455
2022-12-18T08:29:17.324Z,450
2022-12-18T08:30:13.806Z,449
2022-12-18T08:31:13.627Z,438
2022-12-18T08:32:13.956Z,443
2022-12-18T08:33:13.581Z,440
2022-12-18T08:34:14.202Z,443
2022-12-18T08:35:17.569Z,437
2022-12-18T08:36:14.256Z,444
2022-12-18T08:37:13.821Z,437
2022-12-18T08:38:13.397Z,430
2022-12-18T08:39:14.289Z,441
2022-12-18T08:40:13.951Z,434
2022-12-18T08:41:13.691Z,436
2022-12-18T08:42:14.170Z,426
2022-12-18T08:44:14.124Z,410
2022-12-18T08:45:13.976Z,432
2022-12-18T08:46:13.730Z,445
2022-12-18T08:47:13.447Z,436
2022-12-18T08:48:17.824Z,419
2022-12-18T08:49:13.892Z,418
2022-12-18T08:50:14.308Z,414
2022-12-18T08:51:14.008Z,415
2022-12-18T08:52:14.210Z,412
2022-12-18T08:53:13.768Z,407
2022-12-18T08:54:13.456Z,408
2022-12-18T08:55:14.212Z,416
2022-12-18T08:56:14.220Z,423
2022-12-18T08:57:13.766Z,419
2022-12-18T08:58:13.464Z,424
2022-12-18T08:59:19.381Z,428
2022-12-18T09:00:14.680Z,426
2022-12-18T09:01:13.741Z,427
2022-12-18T09:02:13.263Z,433
2022-12-18T09:03:14.497Z,436
2022-12-18T09:04:14.302Z,448
2022-12-18T09:05:13.842Z,449
2022-12-18T09:06:13.916Z,448
2022-12-18T09:07:13.651Z,436
2022-12-18T09:09:13.921Z,434
2022-12-18T09:10:13.868Z,429
2022-12-18T09:11:13.761Z,428
2022-12-18T09:12:14.281Z,423
2022-12-18T09:13:13.854Z,422
2022-12-18T09:14:13.364Z,426
2022-12-18T09:15:14.322Z,422
2022-12-18T09:16:13.715Z,412
2022-12-18T09:17:14.082Z,411
2022-12-18T09:18:13.790Z,410
2022-12-18T09:19:14.411Z,413
2022-12-18T09:20:14.270Z,407
2022-12-18T09:21:14.202Z,414
2022-12-18T09:22:13.718Z,427
2022-12-18T09:23:18.511Z,429
2022-12-18T09:24:14.124Z,428
2022-12-18T09:26:13.292Z,427
2022-12-18T09:27:13.908Z,422
2022-12-18T09:28:13.912Z,417
2022-12-18T09:29:13.428Z,416
2022-12-18T09:30:14.665Z,422
2022-12-18T09:31:14.373Z,435
2022-12-18T09:32:18.970Z,441
2022-12-18T09:33:13.775Z,417
2022-12-18T09:34:14.312Z,427
2022-12-18T09:35:14.169Z,435
2022-12-18T09:36:13.483Z,427
2022-12-18T09:37:14.151Z,416
2022-12-18T09:38:13.667Z,415
2022-12-18T09:39:13.585Z,412
2022-12-18T09:40:13.968Z,427
2022-12-18T09:41:13.505Z,420
2022-12-18T09:42:14.138Z,417
2022-12-18T09:44:13.752Z,423
2022-12-18T09:45:14.180Z,428
2022-12-18T09:47:13.655Z,432
2022-12-18T09:49:14.351Z,430
2022-12-18T09:50:17.283Z,432
2022-12-18T09:51:14.157Z,431
2022-12-18T09:52:13.751Z,426
2022-12-18T09:53:13.415Z,407
2022-12-18T09:54:13.835Z,408
2022-12-18T09:55:13.725Z,424
2022-12-18T09:56:13.584Z,429
2022-12-18T09:57:14.276Z,404
2022-12-18T09:58:14.114Z,417
2022-12-18T09:59:13.733Z,422
2022-12-18T10:00:14.158Z,425
2022-12-18T10:01:14.876Z,428
2022-12-18T10:02:14.570Z,422
2022-12-18T10:03:13.417Z,418
2022-12-18T10:04:14.778Z,416
2022-12-18T10:05:13.674Z,414
2022-12-18T10:06:14.241Z,404
2022-12-18T10:07:13.832Z,400
2022-12-18T10:08:13.085Z,416
2022-12-18T10:09:13.393Z,415
2022-12-18T10:10:13.994Z,421
2022-12-18T10:11:13.525Z,411
2022-12-18T10:12:14.286Z,419
2022-12-18T10:13:14.050Z,421
2022-12-18T10:14:13.551Z,414
2022-12-18T10:15:14.612Z,417
2022-12-18T10:16:14.422Z,413
2022-12-18T10:17:14.416Z,414
2022-12-18T10:18:17.410Z,407
2022-12-18T10:19:14.606Z,382
2022-12-18T10:20:13.786Z,434
2022-12-18T10:21:13.709Z,415
2022-12-18T10:22:13.161Z,407
2022-12-18T10:24:13.989Z,413
2022-12-18T10:25:14.407Z,421
2022-12-18T10:26:13.801Z,423
2022-12-18T10:27:14.444Z,425
2022-12-18T10:28:14.139Z,416
2022-12-18T10:29:13.739Z,421
2022-12-18T10:30:14.692Z,419
2022-12-18T10:31:14.334Z,417
2022-12-18T10:32:14.225Z,415
2022-12-18T10:33:13.601Z,399
2022-12-18T10:34:13.241Z,404
2022-12-18T10:35:14.154Z,412
2022-12-18T10:36:13.419Z,413
2022-12-18T10:37:14.150Z,414
2022-12-18T10:38:13.652Z,420
2022-12-18T10:39:13.694Z,415
2022-12-18T10:40:19.851Z,424
2022-12-18T10:41:13.710Z,419
2022-12-18T10:42:13.759Z,413
2022-12-18T10:43:14.275Z,407
2022-12-18T10:44:14.176Z,412
2022-12-18T10:45:14.049Z,414
2022-12-18T10:46:13.761Z,418
2022-12-18T10:47:13.811Z,412
2022-12-18T10:48:14.122Z,405
2022-12-18T10:49:14.054Z,410
2022-12-18T10:50:13.770Z,416
2022-12-18T10:51:14.075Z,415
2022-12-18T10:53:14.055Z,405
2022-12-18T10:54:13.789Z,402
2022-12-18T10:55:13.753Z,395
2022-12-18T10:56:13.903Z,390
2022-12-18T10:57:13.560Z,389
2022-12-18T10:58:14.401Z,408
2022-12-18T10:59:14.454Z,404
2022-12-18T11:01:13.936Z,408
2022-12-18T11:03:14.277Z,406
2022-12-18T11:04:14.099Z,408
2022-12-18T11:05:13.883Z,409
2022-12-18T11:07:14.145Z,399
2022-12-18T11:08:13.782Z,395
2022-12-18T11:10:14.083Z,416
2022-12-18T11:11:13.565Z,415
2022-12-18T11:13:13.872Z,414
2022-12-18T11:14:13.102Z,410
2022-12-18T11:16:13.511Z,416
2022-12-18T11:17:26.749Z,408
2022-12-18T11:18:13.795Z,401
2022-12-18T11:19:13.475Z,400
2022-12-18T11:20:14.091Z,405
2022-12-18T11:21:13.917Z,413
2022-12-18T11:22:13.497Z,410
2022-12-18T11:23:13.858Z,411
2022-12-18T11:24:13.764Z,405
2022-12-18T11:25:34.597Z,409
2022-12-18T11:26:13.983Z,403
2022-12-18T11:27:13.975Z,406
2022-12-18T11:28:13.799Z,397
2022-12-18T11:29:14.133Z,400
2022-12-18T11:30:13.836Z,402
2022-12-18T11:31:13.485Z,394
2022-12-18T11:32:14.064Z,397
2022-12-18T11:33:13.487Z,395
2022-12-18T11:34:29.246Z,396
2022-12-18T11:35:13.659Z,400
2022-12-18T11:36:13.134Z,403
2022-12-18T11:37:13.787Z,400
2022-12-18T11:38:13.669Z,398
2022-12-18T11:39:14.431Z,402
2022-12-18T11:40:13.886Z,399
2022-12-18T11:41:13.295Z,405
2022-12-18T11:42:13.761Z,406
2022-12-18T11:43:14.185Z,404
2022-12-18T11:44:14.051Z,399
2022-12-18T11:45:13.973Z,394
2022-12-18T11:46:19.144Z,396
2022-12-18T11:47:13.599Z,397
2022-12-18T11:48:18.985Z,396
2022-12-18T11:49:13.879Z,399
2022-12-18T11:50:13.503Z,404
2022-12-18T11:51:14.042Z,415
2022-12-18T11:52:18.464Z,419
2022-12-18T11:53:14.047Z,420
2022-12-18T11:54:13.532Z,403
2022-12-18T11:55:14.224Z,396
2022-12-18T11:56:13.875Z,399
2022-12-18T11:57:14.182Z,400
2022-12-18T11:58:14.091Z,398
2022-12-18T11:59:13.141Z,402
2022-12-18T12:00:19.373Z,401
2022-12-18T12:01:13.649Z,403
2022-12-18T12:02:13.579Z,398
2022-12-18T12:03:13.557Z,391
2022-12-18T12:04:13.525Z,393
2022-12-18T12:05:14.283Z,406
2022-12-18T12:06:13.614Z,412
2022-12-18T12:07:14.618Z,409
2022-12-18T12:08:12.751Z,403
2022-12-18T12:09:14.290Z,409
2022-12-18T12:10:13.857Z,411
2022-12-18T12:11:13.106Z,406
2022-12-18T12:12:13.553Z,409
2022-12-18T12:13:13.711Z,396
2022-12-18T12:14:13.913Z,397
2022-12-18T12:15:13.444Z,406
2022-12-18T12:16:13.870Z,405
2022-12-18T12:17:13.606Z,388
2022-12-18T12:18:13.971Z,387
2022-12-18T12:19:13.412Z,401
2022-12-18T12:20:14.187Z,413
2022-12-18T12:21:14.721Z,406
2022-12-18T12:22:14.116Z,408
2022-12-18T12:23:13.675Z,404
2022-12-18T12:24:14.436Z,406
2022-12-18T12:25:14.171Z,402
2022-12-18T12:26:32.607Z,414
2022-12-18T12:27:13.574Z,413
2022-12-18T12:28:13.500Z,417
2022-12-18T12:29:19.419Z,418
2022-12-18T12:30:32.416Z,421
2022-12-18T12:31:13.800Z,409
2022-12-18T12:32:13.397Z,408
2022-12-18T12:35:14.574Z,406
2022-12-18T12:36:13.802Z,401
2022-12-18T12:37:13.314Z,402
2022-12-18T12:38:13.834Z,399
2022-12-18T12:39:13.551Z,405
2022-12-18T12:40:48.452Z,413
2022-12-18T12:41:13.527Z,390
2022-12-18T12:42:14.241Z,399
2022-12-18T12:43:13.732Z,398
2022-12-18T12:44:13.570Z,397
2022-12-18T12:45:14.422Z,407
2022-12-18T12:46:14.347Z,401
2022-12-18T12:47:13.262Z,399
2022-12-18T12:48:14.289Z,405
2022-12-18T12:49:13.536Z,409
2022-12-18T12:50:14.294Z,406
2022-12-18T12:51:14.201Z,419
2022-12-18T12:52:13.726Z,420
2022-12-18T12:53:13.114Z,419
2022-12-18T12:54:14.106Z,406
2022-12-18T12:55:15.007Z,400
2022-12-18T12:56:13.596Z,402
2022-12-18T12:57:13.229Z,397
2022-12-18T12:58:14.269Z,403
2022-12-18T12:59:14.234Z,413
2022-12-18T13:00:14.776Z,412
2022-12-18T13:01:17.278Z,405
2022-12-18T13:02:14.103Z,397
2022-12-18T13:03:14.141Z,426
2022-12-18T13:04:14.018Z,421
2022-12-18T13:05:13.862Z,403
2022-12-18T13:06:13.252Z,406
2022-12-18T13:07:13.191Z,410
2022-12-18T13:08:14.052Z,413
2022-12-18T13:09:13.811Z,415
2022-12-18T13:10:13.541Z,410
2022-12-18T13:11:14.179Z,407
2022-12-18T13:12:13.974Z,399
2022-12-18T13:13:16.572Z,403
2022-12-18T13:14:14.264Z,408
2022-12-18T13:15:14.514Z,403
2022-12-18T13:16:13.356Z,399
2022-12-18T13:17:13.426Z,402
2022-12-18T13:18:13.459Z,418
2022-12-18T13:19:13.880Z,420
2022-12-18T13:20:14.037Z,412
2022-12-18T13:21:13.951Z,408
2022-12-18T13:22:13.595Z,399
2022-12-18T13:23:14.304Z,398
2022-12-18T13:24:14.483Z,413
2022-12-18T13:25:14.364Z,403
2022-12-18T13:26:14.092Z,393
2022-12-18T13:27:14.287Z,423
2022-12-18T13:28:14.437Z,428
2022-12-18T13:29:14.181Z,419
2022-12-18T13:30:14.435Z,409
2022-12-18T13:31:13.856Z,398
2022-12-18T13:32:18.362Z,402
2022-12-18T13:33:13.642Z,408
2022-12-18T13:34:26.179Z,407
2022-12-18T13:35:14.528Z,408
2022-12-18T13:36:14.211Z,414
2022-12-18T13:37:14.097Z,409
2022-12-18T13:38:13.681Z,410
2022-12-18T13:39:14.061Z,422
2022-12-18T13:40:14.644Z,415
2022-12-18T13:41:13.582Z,417
2022-12-18T13:42:13.630Z,411
2022-12-18T13:43:14.321Z,419
2022-12-18T13:44:14.381Z,415
2022-12-18T13:45:13.604Z,406
2022-12-18T13:46:14.355Z,413
2022-12-18T13:47:14.156Z,422
2022-12-18T13:48:13.954Z,413
2022-12-18T13:50:13.537Z,405
2022-12-18T13:51:13.897Z,419
2022-12-18T13:52:13.204Z,414
2022-12-18T13:53:13.982Z,418
2022-12-18T13:54:13.947Z,411
2022-12-18T13:55:14.016Z,398
2022-12-18T13:56:14.029Z,407
2022-12-18T13:57:15.368Z,413
2022-12-18T13:58:13.842Z,414
2022-12-18T13:59:13.916Z,413
2022-12-18T14:00:14.472Z,408
2022-12-18T14:01:14.510Z,411
2022-12-18T14:02:14.446Z,406
2022-12-18T14:03:16.440Z,421
2022-12-18T14:04:13.979Z,426
2022-12-18T14:05:13.996Z,424
2022-12-18T14:06:13.478Z,419
2022-12-18T14:07:14.087Z,413
2022-12-18T14:08:13.775Z,408
2022-12-18T14:09:16.590Z,415
2022-12-18T14:10:41.808Z,413
2022-12-18T14:11:14.198Z,410
2022-12-18T14:13:13.683Z,407
2022-12-18T14:14:13.948Z,398
2022-12-18T14:15:19.586Z,409
2022-12-18T14:16:14.181Z,421
2022-12-18T14:17:18.776Z,414
2022-12-18T14:18:13.842Z,408
2022-12-18T14:19:15.655Z,416
2022-12-18T14:21:14.644Z,424
2022-12-18T14:22:13.722Z,419
2022-12-18T14:23:13.702Z,422
2022-12-18T14:24:13.623Z,419
2022-12-18T14:25:13.425Z,416
2022-12-18T14:26:14.311Z,409
2022-12-18T14:27:14.372Z,401
2022-12-18T14:28:14.299Z,406
2022-12-18T14:29:14.114Z,405
2022-12-18T14:30:14.410Z,401
2022-12-18T14:31:22.121Z,412
2022-12-18T14:32:17.795Z,411
2022-12-18T14:33:13.712Z,412